createdAt,value
2023-02-06T00:02:18.207Z,-7.08
2023-02-06T00:04:48.352Z,-7.08
2023-02-06T00:07:18.399Z,-7.07
2023-02-06T00:09:48.458Z,-7.08
2023-02-06T00:12:19.125Z,-7.12
2023-02-06T00:14:48.992Z,-7.13
2023-02-06T00:17:19.050Z,-7.13
2023-02-06T00:19:49.083Z,-7.13
2023-02-06T00:22:19.178Z,-7.13
2023-02-06T00:24:49.225Z,-7.14
2023-02-06T00:27:19.360Z,-7.13
2023-02-06T00:29:49.453Z,-7.12
2023-02-06T00:32:20.073Z,-7.11
2023-02-06T00:34:50.142Z,-7.12
2023-02-06T00:37:20.205Z,-7.11
2023-02-06T00:39:50.319Z,-7.09
2023-02-06T00:42:20.659Z,-7.06
2023-02-06T00:44:50.779Z,-7.04
2023-02-06T00:47:19.169Z,-7.05
2023-02-06T00:49:47.670Z,-7.06
2023-02-06T00:52:16.079Z,-7.06
2023-02-06T00:54:44.423Z,-7.07
2023-02-06T00:57:12.899Z,-7.05
2023-02-06T00:59:41.273Z,-7.05
2023-02-06T01:02:09.801Z,-7.05
2023-02-06T01:04:38.262Z,-7.04
2023-02-06T01:07:06.522Z,-7.05
2023-02-06T01:09:35.105Z,-7.04
2023-02-06T01:12:03.656Z,-7.04
2023-02-06T01:14:31.972Z,-7.06
2023-02-06T01:17:00.221Z,-7.07
2023-02-06T01:19:28.763Z,-7.08
2023-02-06T01:21:57.141Z,-7.11
2023-02-06T01:24:25.458Z,-7.13
2023-02-06T01:26:53.918Z,-7.13
2023-02-06T01:29:22.426Z,-7.14
2023-02-06T01:31:50.745Z,-7.13
2023-02-06T01:34:19.160Z,-7.15
2023-02-06T01:36:47.566Z,-7.14
2023-02-06T01:39:16.006Z,-7.13
2023-02-06T01:41:45.603Z,-7.14
2023-02-06T01:44:22.670Z,-7.13
2023-02-06T01:46:57.611Z,-7.12
2023-02-06T01:49:44.061Z,-7.13
2023-02-06T01:52:23.612Z,-7.14
2023-02-06T01:55:05.047Z,-7.14
2023-02-06T01:57:35.285Z,-7.17
2023-02-06T02:00:11.736Z,-7.17
2023-02-06T02:02:50.758Z,-7.19
2023-02-06T02:05:21.310Z,-7.22
2023-02-06T02:08:06.759Z,-7.22
2023-02-06T02:10:35.612Z,-7.24
2023-02-06T02:13:03.242Z,-7.26
2023-02-06T02:16:05.090Z,-7.27
2023-02-06T02:19:16.910Z,-7.33
2023-02-06T02:22:26.729Z,-7.39
2023-02-06T02:25:53.494Z,-7.41
2023-02-06T02:28:53.782Z,-7.42
2023-02-06T02:32:03.641Z,-7.39
2023-02-06T02:35:17.729Z,-7.43
2023-02-06T02:38:37.549Z,-7.44
2023-02-06T02:41:33.808Z,-7.43
2023-02-06T02:44:24.033Z,-7.39
2023-02-06T02:47:04.154Z,-7.27
2023-02-06T02:49:40.849Z,-7.21
2023-02-06T02:52:13.740Z,-7.15
2023-02-06T02:54:43.788Z,-7.10
2023-02-06T02:57:28.052Z,-7.05
2023-02-06T03:00:02.133Z,-6.99
2023-02-06T03:02:40.899Z,-6.92
2023-02-06T03:05:20.430Z,-6.84
2023-02-06T03:08:28.621Z,-6.79
2023-02-06T03:11:17.292Z,-6.72
2023-02-06T03:14:29.650Z,-6.69
2023-02-06T03:17:14.093Z,-6.63
2023-02-06T03:19:55.598Z,-6.56
2023-02-06T03:22:30.138Z,-6.53
2023-02-06T03:25:09.831Z,-6.40
2023-02-06T03:27:46.052Z,-6.42
2023-02-06T03:30:24.007Z,-6.40
2023-02-06T03:33:07.704Z,-6.35
2023-02-06T03:35:40.637Z,-6.26
2023-02-06T03:38:11.576Z,-6.20
2023-02-06T03:40:49.204Z,-6.13
2023-02-06T03:43:26.667Z,-6.12
2023-02-06T03:46:07.464Z,-6.11
2023-02-06T03:48:45.977Z,-6.11
2023-02-06T03:51:30.542Z,-6.04
2023-02-06T03:54:05.902Z,-5.98
2023-02-06T03:56:56.754Z,-5.96
2023-02-06T03:59:27.739Z,-5.88
2023-02-06T04:02:03.877Z,-5.85
2023-02-06T04:04:42.584Z,-5.88
2023-02-06T04:07:36.223Z,-5.82
2023-02-06T04:10:07.047Z,-5.70
2023-02-06T04:12:34.810Z,-5.76
2023-02-06T04:15:03.873Z,-5.76
2023-02-06T04:17:46.273Z,-5.76
2023-02-06T04:20:21.337Z,-5.67
2023-02-06T04:22:51.399Z,-5.60
2023-02-06T04:25:21.924Z,-5.51
2023-02-06T04:27:52.206Z,-5.46
2023-02-06T04:30:22.318Z,-5.42
2023-02-06T04:32:52.529Z,-5.44
2023-02-06T04:35:22.852Z,-5.34
2023-02-06T04:37:53.248Z,-5.36
2023-02-06T04:40:23.328Z,-5.44
2023-02-06T04:42:53.512Z,-5.52
2023-02-06T04:45:23.762Z,-5.49
2023-02-06T04:47:53.911Z,-5.44
2023-02-06T04:50:24.665Z,-5.40
2023-02-06T04:52:54.672Z,-5.34
2023-02-06T04:55:24.785Z,-5.32
2023-02-06T04:57:54.877Z,-5.23
2023-02-06T05:00:24.968Z,-5.20
2023-02-06T05:02:54.985Z,-5.18
2023-02-06T05:05:25.059Z,-5.10
2023-02-06T05:07:55.141Z,-5.01
2023-02-06T05:10:26.965Z,-5.08
2023-02-06T05:12:57.153Z,-5.15
2023-02-06T05:15:27.192Z,-5.14
2023-02-06T05:17:57.259Z,-5.14
2023-02-06T05:20:27.613Z,-5.08
2023-02-06T05:22:57.952Z,-5.05
2023-02-06T05:25:28.304Z,-5.09
2023-02-06T05:27:58.473Z,-5.03
2023-02-06T05:30:28.859Z,-5.09
2023-02-06T05:32:59.183Z,-5.11
2023-02-06T05:35:29.462Z,-5.15
2023-02-06T05:37:59.481Z,-5.17
2023-02-06T05:40:29.608Z,-5.17
2023-02-06T05:42:59.694Z,-5.07
2023-02-06T05:45:29.736Z,-4.98
2023-02-06T05:47:59.813Z,-4.96
2023-02-06T05:50:28.484Z,-4.72
2023-02-06T05:52:56.650Z,-4.80
2023-02-06T05:55:25.405Z,-4.91
2023-02-06T05:57:53.686Z,-4.98
2023-02-06T06:00:22.431Z,-4.91
2023-02-06T06:02:50.484Z,-4.99
2023-02-06T06:05:18.980Z,-4.98
2023-02-06T06:07:47.854Z,-4.97
2023-02-06T06:10:16.300Z,-4.93
2023-02-06T06:12:44.187Z,-4.93
2023-02-06T06:15:13.082Z,-4.89
2023-02-06T06:17:41.163Z,-4.82
2023-02-06T06:20:10.393Z,-4.74
2023-02-06T06:22:38.094Z,-4.60
2023-02-06T06:25:07.314Z,-4.41
2023-02-06T06:27:34.930Z,-4.52
2023-02-06T06:30:04.056Z,-4.70
2023-02-06T06:32:32.453Z,-4.70
2023-02-06T06:35:00.099Z,-4.67
2023-02-06T06:37:28.611Z,-4.65
2023-02-06T06:39:56.964Z,-4.68
2023-02-06T06:42:25.709Z,-4.74
2023-02-06T06:44:53.824Z,-4.67
2023-02-06T06:47:22.337Z,-4.70
2023-02-06T06:49:50.676Z,-4.71
2023-02-06T06:52:24.999Z,-4.59
2023-02-06T06:54:55.733Z,-4.60
2023-02-06T06:57:25.860Z,-4.64
2023-02-06T06:59:55.881Z,-4.72
2023-02-06T07:02:28.515Z,-4.73
2023-02-06T07:05:00.410Z,-4.67
2023-02-06T07:07:30.731Z,-4.48
2023-02-06T07:10:02.032Z,-4.48
2023-02-06T07:12:33.207Z,-4.47
2023-02-06T07:15:05.684Z,-4.39
2023-02-06T07:17:36.788Z,-4.31
2023-02-06T07:20:07.993Z,-4.35
2023-02-06T07:22:38.504Z,-4.40
2023-02-06T07:25:08.761Z,-4.40
2023-02-06T07:27:38.816Z,-4.37
2023-02-06T07:30:10.254Z,-4.31
2023-02-06T07:32:40.957Z,-4.31
2023-02-06T07:35:11.187Z,-4.26
2023-02-06T07:37:41.411Z,-4.20
2023-02-06T07:40:12.748Z,-4.12
2023-02-06T07:42:42.784Z,-4.00
2023-02-06T07:45:11.319Z,-4.03
2023-02-06T07:47:39.619Z,-3.95
2023-02-06T07:50:08.608Z,-4.02
2023-02-06T07:52:37.134Z,-3.98
2023-02-06T07:55:05.552Z,-3.86
2023-02-06T07:57:33.277Z,-3.74
2023-02-06T08:00:01.910Z,-3.68
2023-02-06T08:02:30.096Z,-3.53
2023-02-06T08:04:58.540Z,-3.52
2023-02-06T08:07:27.093Z,-3.46
2023-02-06T08:09:55.389Z,-3.37
2023-02-06T08:12:24.113Z,-3.22
2023-02-06T08:14:52.802Z,-3.21
2023-02-06T08:17:21.362Z,-3.11
2023-02-06T08:19:49.531Z,-3.09
2023-02-06T08:22:17.478Z,-3.05
2023-02-06T08:24:45.900Z,-3.07
2023-02-06T08:27:14.378Z,-3.01
2023-02-06T08:29:42.918Z,-2.97
2023-02-06T08:32:12.769Z,-2.98
2023-02-06T08:34:42.592Z,-2.94
2023-02-06T08:37:11.097Z,-2.93
2023-02-06T08:39:42.167Z,-2.83
2023-02-06T08:42:15.343Z,-2.84
2023-02-06T08:44:45.384Z,-2.73
2023-02-06T08:47:16.967Z,-2.68
2023-02-06T08:49:51.334Z,-2.57
2023-02-06T08:52:22.709Z,-2.52
2023-02-06T08:54:53.071Z,-2.48
2023-02-06T08:57:23.183Z,-2.52
2023-02-06T08:59:53.242Z,-2.61
2023-02-06T09:02:23.428Z,-2.49
2023-02-06T09:04:53.576Z,-2.54
2023-02-06T09:07:24.555Z,-2.59
2023-02-06T09:09:54.610Z,-2.68
2023-02-06T09:12:25.011Z,-2.55
2023-02-06T09:14:55.099Z,-2.58
2023-02-06T09:17:25.244Z,-2.57
2023-02-06T09:19:55.304Z,-2.33
2023-02-06T09:22:26.365Z,-2.13
2023-02-06T09:24:56.475Z,-2.07
2023-02-06T09:27:26.535Z,-1.95
2023-02-06T09:29:56.565Z,-1.97
2023-02-06T09:32:26.638Z,-2.07
2023-02-06T09:34:56.666Z,-2.00
2023-02-06T09:37:26.741Z,-2.08
2023-02-06T09:39:56.838Z,-2.02
2023-02-06T09:42:41.845Z,-2.03
2023-02-06T09:45:22.452Z,-2.07
2023-02-06T09:48:20.495Z,-2.09
2023-02-06T09:51:17.610Z,-2.06
2023-02-06T09:54:27.304Z,-1.98
2023-02-06T09:57:40.037Z,-1.99
2023-02-06T10:00:29.386Z,-1.93
2023-02-06T10:03:38.978Z,-1.95
2023-02-06T10:06:33.018Z,-1.95
2023-02-06T10:09:24.463Z,-1.82
2023-02-06T10:12:10.571Z,-1.71
2023-02-06T10:14:56.294Z,-1.69
2023-02-06T10:17:45.180Z,-1.69
2023-02-06T10:20:43.524Z,-1.66
2023-02-06T10:23:36.004Z,-1.60
2023-02-06T10:26:17.059Z,-1.66
2023-02-06T10:28:58.180Z,-1.50
2023-02-06T10:31:26.134Z,-1.44
2023-02-06T10:34:52.885Z,-1.41
2023-02-06T10:37:52.710Z,-1.42
2023-02-06T10:40:57.015Z,-1.21
2023-02-06T10:44:04.184Z,-1.09
2023-02-06T10:46:51.075Z,-1.27
2023-02-06T10:49:47.801Z,-1.31
2023-02-06T10:52:35.514Z,-1.31
2023-02-06T10:55:49.271Z,-1.46
2023-02-06T10:59:01.177Z,-1.40
2023-02-06T11:01:40.006Z,-1.48
2023-02-06T11:04:52.546Z,-1.36
2023-02-06T11:07:33.533Z,-1.27
2023-02-06T11:10:07.096Z,-1.17
2023-02-06T11:12:48.107Z,-1.13
2023-02-06T11:15:50.950Z,-0.98
2023-02-06T11:18:39.157Z,-0.94
2023-02-06T11:21:15.053Z,-1.13
2023-02-06T11:23:45.106Z,-0.95
2023-02-06T11:26:22.669Z,-1.13
2023-02-06T11:29:14.636Z,-1.21
2023-02-06T11:31:58.749Z,-1.03
2023-02-06T11:34:53.548Z,-1.11
2023-02-06T11:37:40.883Z,-1.37
2023-02-06T11:40:17.316Z,-1.25
2023-02-06T11:43:20.649Z,-1.04
2023-02-06T11:46:14.175Z,-0.95
2023-02-06T11:48:49.629Z,-1.00
2023-02-06T11:51:19.724Z,-0.98
2023-02-06T11:54:04.142Z,-0.92
2023-02-06T11:56:32.394Z,-0.68
2023-02-06T11:59:23.023Z,-0.44
2023-02-06T12:01:53.903Z,-0.36
2023-02-06T12:04:39.060Z,-0.32
2023-02-06T12:07:22.086Z,-0.16
2023-02-06T12:09:52.424Z,-0.52
2023-02-06T12:12:47.210Z,-0.58
2023-02-06T12:15:47.888Z,-0.48
2023-02-06T12:18:32.393Z,-0.66
2023-02-06T12:21:43.028Z,-0.41
2023-02-06T12:24:43.255Z,-0.93
2023-02-06T12:27:39.426Z,-1.21
2023-02-06T12:31:04.971Z,-1.01
2023-02-06T12:33:54.918Z,-0.95
2023-02-06T12:36:50.014Z,-0.98
2023-02-06T12:39:23.689Z,-1.09
2023-02-06T12:42:18.901Z,-0.89
2023-02-06T12:45:06.767Z,-0.54
2023-02-06T12:47:57.534Z,-0.58
2023-02-06T12:50:57.930Z,-0.58
2023-02-06T12:54:00.717Z,-0.69
2023-02-06T12:56:53.973Z,-0.94
2023-02-06T12:59:58.326Z,-0.31
2023-02-06T13:03:19.619Z,-0.42
2023-02-06T13:06:21.102Z,-0.88
2023-02-06T13:09:02.343Z,-0.61
2023-02-06T13:11:42.649Z,-0.54
2023-02-06T13:14:29.642Z,-0.36
2023-02-06T13:17:04.887Z,-0.13
2023-02-06T13:19:38.014Z,-0.40
2023-02-06T13:22:10.696Z,-0.29
2023-02-06T13:24:45.422Z,-0.46
2023-02-06T13:27:37.087Z,-0.58
2023-02-06T13:30:24.338Z,-0.54
2023-02-06T13:33:14.360Z,-0.47
2023-02-06T13:36:02.268Z,-0.47
2023-02-06T13:38:35.332Z,-0.39
2023-02-06T13:41:14.432Z,-0.43
2023-02-06T13:44:24.805Z,-0.73
2023-02-06T13:47:20.056Z,-0.77
2023-02-06T13:50:24.024Z,-0.67
2023-02-06T13:53:44.841Z,-0.62
2023-02-06T13:56:41.818Z,-0.50
2023-02-06T13:59:42.188Z,-0.50
2023-02-06T14:02:23.582Z,-0.43
2023-02-06T14:04:54.745Z,-0.58
2023-02-06T14:08:02.021Z,-0.53
2023-02-06T14:11:04.346Z,-0.62
2023-02-06T14:14:14.830Z,-0.70
2023-02-06T14:18:22.275Z,-0.73
2023-02-06T14:21:18.452Z,-0.65
2023-02-06T14:24:28.017Z,-0.59
2023-02-06T14:27:33.906Z,-0.59
2023-02-06T14:30:49.122Z,-0.76
2023-02-06T14:33:43.433Z,-0.75
2023-02-06T14:36:39.285Z,-0.94
2023-02-06T14:39:49.040Z,-0.89
2023-02-06T14:42:40.893Z,-0.86
2023-02-06T14:45:41.584Z,-0.94
2023-02-06T14:48:55.335Z,-1.12
2023-02-06T14:51:37.338Z,-1.12
2023-02-06T14:54:38.429Z,-1.38
2023-02-06T14:57:26.467Z,-1.49
2023-02-06T15:00:03.143Z,-1.51
2023-02-06T15:02:36.967Z,-1.66
2023-02-06T15:05:07.486Z,-1.70
2023-02-06T15:07:39.340Z,-1.80
2023-02-06T15:10:18.351Z,-1.91
2023-02-06T15:12:54.382Z,-1.94
2023-02-06T15:15:30.437Z,-1.99
2023-02-06T15:18:17.962Z,-2.05
2023-02-06T15:21:07.308Z,-2.11
2023-02-06T15:23:45.780Z,-2.16
2023-02-06T15:26:45.676Z,-2.24
2023-02-06T15:29:24.338Z,-2.30
2023-02-06T15:32:04.474Z,-2.32
2023-02-06T15:34:35.397Z,-2.33
2023-02-06T15:37:44.060Z,-2.36
2023-02-06T15:40:35.997Z,-2.47
2023-02-06T15:43:07.025Z,-2.52
2023-02-06T15:45:40.622Z,-2.54
2023-02-06T15:48:31.190Z,-2.60
2023-02-06T15:51:24.778Z,-2.62
2023-02-06T15:54:22.670Z,-2.75
2023-02-06T15:57:27.474Z,-2.83
2023-02-06T15:59:59.573Z,-2.92
2023-02-06T16:02:36.811Z,-2.98
2023-02-06T16:05:18.797Z,-3.09
2023-02-06T16:07:49.818Z,-3.14
2023-02-06T16:10:40.817Z,-3.23
2023-02-06T16:13:23.188Z,-3.30
2023-02-06T16:16:11.645Z,-3.39
2023-02-06T16:18:42.115Z,-3.47
2023-02-06T16:21:18.038Z,-3.54
2023-02-06T16:24:00.233Z,-3.63
2023-02-06T16:26:43.324Z,-3.71
2023-02-06T16:29:32.876Z,-3.78
2023-02-06T16:32:29.645Z,-3.84
2023-02-06T16:35:01.333Z,-3.90
2023-02-06T16:37:32.129Z,-3.96
2023-02-06T16:40:02.278Z,-4.03
2023-02-06T16:42:41.397Z,-4.01
2023-02-06T16:45:26.613Z,-3.88
2023-02-06T16:47:56.561Z,-3.82
2023-02-06T16:50:24.971Z,-3.89
2023-02-06T16:53:01.848Z,-3.78
2023-02-06T16:55:29.943Z,-3.85
2023-02-06T16:58:01.582Z,-3.97
2023-02-06T17:00:32.603Z,-4.10
2023-02-06T17:03:01.125Z,-4.20
2023-02-06T17:05:31.636Z,-4.28
2023-02-06T17:08:03.998Z,-4.36
2023-02-06T17:10:32.418Z,-4.43
2023-02-06T17:13:02.481Z,-4.50
2023-02-06T17:15:32.508Z,-4.57
2023-02-06T17:18:02.301Z,-4.62
2023-02-06T17:20:40.704Z,-4.68
2023-02-06T17:23:11.114Z,-4.72
2023-02-06T17:25:45.151Z,-4.76
2023-02-06T17:28:19.452Z,-4.77
2023-02-06T17:30:50.845Z,-4.81
2023-02-06T17:33:21.088Z,-4.85
2023-02-06T17:35:51.164Z,-4.90
2023-02-06T17:38:20.914Z,-4.95
2023-02-06T17:40:50.827Z,-5.02
2023-02-06T17:43:20.965Z,-5.06
2023-02-06T17:45:49.576Z,-5.12
2023-02-06T17:48:17.353Z,-5.15
2023-02-06T17:50:47.092Z,-5.19
2023-02-06T17:53:15.264Z,-5.22
2023-02-06T17:55:45.143Z,-5.26
2023-02-06T17:58:14.672Z,-5.31
2023-02-06T18:00:43.064Z,-5.33
2023-02-06T18:03:11.491Z,-5.36
2023-02-06T18:05:39.920Z,-5.37
2023-02-06T18:08:08.230Z,-5.42
2023-02-06T18:10:39.506Z,-5.43
2023-02-06T18:13:09.683Z,-5.47
2023-02-06T18:15:40.017Z,-5.53
2023-02-06T18:18:09.814Z,-5.56
2023-02-06T18:20:41.938Z,-5.58
2023-02-06T18:23:14.274Z,-5.62
2023-02-06T18:25:44.369Z,-5.65
2023-02-06T18:28:15.122Z,-5.69
2023-02-06T18:30:46.147Z,-5.74
2023-02-06T18:33:16.472Z,-5.75
2023-02-06T18:35:46.641Z,-5.77
2023-02-06T18:38:18.404Z,-5.75
2023-02-06T18:40:50.046Z,-5.76
2023-02-06T18:43:18.041Z,-5.79
2023-02-06T18:45:48.108Z,-5.82
2023-02-06T18:48:18.160Z,-5.83
2023-02-06T18:50:48.162Z,-5.77
2023-02-06T18:53:18.275Z,-5.74
2023-02-06T18:55:58.982Z,-5.76
2023-02-06T18:58:28.421Z,-5.79
2023-02-06T19:00:58.246Z,-5.84
2023-02-06T19:03:28.127Z,-5.90
2023-02-06T19:05:57.965Z,-5.95
2023-02-06T19:08:27.952Z,-6.00
2023-02-06T19:10:58.197Z,-6.03
2023-02-06T19:13:27.995Z,-6.04
2023-02-06T19:16:16.693Z,-6.08
2023-02-06T19:18:49.471Z,-6.12
2023-02-06T19:21:23.228Z,-6.15
2023-02-06T19:24:00.540Z,-6.21
2023-02-06T19:26:29.660Z,-6.24
2023-02-06T19:29:00.703Z,-6.26
2023-02-06T19:31:28.056Z,-6.25
2023-02-06T19:34:01.894Z,-6.26
2023-02-06T19:36:31.691Z,-6.27
2023-02-06T19:39:06.338Z,-6.31
2023-02-06T19:41:36.538Z,-6.34
2023-02-06T19:44:14.227Z,-6.38
2023-02-06T19:46:44.364Z,-6.38
2023-02-06T19:49:14.189Z,-6.38
2023-02-06T19:51:44.832Z,-6.38
2023-02-06T19:54:15.764Z,-6.39
2023-02-06T19:56:49.874Z,-6.42
2023-02-06T19:59:27.606Z,-6.47
2023-02-06T20:02:02.683Z,-6.47
2023-02-06T20:04:35.591Z,-6.49
2023-02-06T20:07:06.368Z,-6.51
2023-02-06T20:09:41.152Z,-6.53
2023-02-06T20:12:14.721Z,-6.57
2023-02-06T20:14:42.622Z,-6.59
2023-02-06T20:17:12.656Z,-6.61
2023-02-06T20:19:42.680Z,-6.62
2023-02-06T20:22:12.442Z,-6.63
2023-02-06T20:24:42.313Z,-6.65
2023-02-06T20:27:13.277Z,-6.67
2023-02-06T20:29:45.843Z,-6.67
2023-02-06T20:32:19.482Z,-6.69
2023-02-06T20:34:48.665Z,-6.71
2023-02-06T20:37:18.487Z,-6.74
2023-02-06T20:39:49.264Z,-6.75
2023-02-06T20:42:22.373Z,-6.81
2023-02-06T20:44:52.749Z,-6.83
2023-02-06T20:47:21.072Z,-6.85
2023-02-06T20:49:51.009Z,-6.87
2023-02-06T20:52:19.550Z,-6.88
2023-02-06T20:54:47.868Z,-6.89
2023-02-06T20:57:16.433Z,-6.90
2023-02-06T20:59:44.858Z,-6.91
2023-02-06T21:02:13.390Z,-6.90
2023-02-06T21:04:41.776Z,-6.92
2023-02-06T21:07:10.382Z,-6.93
2023-02-06T21:09:38.750Z,-6.94
2023-02-06T21:12:13.172Z,-6.96
2023-02-06T21:14:42.997Z,-6.99
2023-02-06T21:17:12.789Z,-7.01
2023-02-06T21:19:42.715Z,-7.04
2023-02-06T21:22:12.593Z,-7.06
2023-02-06T21:24:42.407Z,-7.07
2023-02-06T21:27:12.109Z,-7.09
2023-02-06T21:29:41.810Z,-7.10
2023-02-06T21:32:14.339Z,-7.12
2023-02-06T21:34:44.730Z,-7.13
2023-02-06T21:37:14.784Z,-7.14
2023-02-06T21:39:45.053Z,-7.16
2023-02-06T21:42:16.055Z,-7.16
2023-02-06T21:44:46.288Z,-7.19
2023-02-06T21:47:16.391Z,-7.20
2023-02-06T21:49:46.701Z,-7.21
2023-02-06T21:52:16.819Z,-7.22
2023-02-06T21:54:46.859Z,-7.23
2023-02-06T21:57:16.644Z,-7.24
2023-02-06T21:59:46.558Z,-7.27
2023-02-06T22:02:16.370Z,-7.29
2023-02-06T22:04:45.263Z,-7.28
2023-02-06T22:07:13.477Z,-7.29
2023-02-06T22:09:42.110Z,-7.30
2023-02-06T22:12:17.041Z,-7.31
2023-02-06T22:14:47.052Z,-7.32
2023-02-06T22:17:16.932Z,-7.32
2023-02-06T22:25:09.252Z,-7.36
2023-02-06T22:27:39.397Z,-7.34
2023-02-06T22:30:10.859Z,-7.34
2023-02-06T22:32:40.894Z,-7.35
2023-02-06T22:35:11.006Z,-7.38
2023-02-06T22:37:43.075Z,-7.39
2023-02-06T22:40:14.389Z,-7.40
2023-02-06T22:42:44.136Z,-7.42
2023-02-06T22:45:14.097Z,-7.43
2023-02-06T22:47:43.761Z,-7.43
2023-02-06T22:50:13.918Z,-7.45
2023-02-06T22:53:02.035Z,-7.44
2023-02-06T22:55:49.929Z,-7.48
2023-02-06T22:58:19.754Z,-7.49
2023-02-06T23:00:49.886Z,-7.51
2023-02-06T23:03:19.628Z,-7.51
2023-02-06T23:05:49.482Z,-7.53
2023-02-06T23:08:19.341Z,-7.57
2023-02-06T23:10:49.448Z,-7.57
2023-02-06T23:13:19.231Z,-7.59
2023-02-06T23:15:49.035Z,-7.59
2023-02-06T23:18:18.762Z,-7.59
2023-02-06T23:21:24.689Z,-7.63
2023-02-06T23:24:00.865Z,-7.65
2023-02-06T23:26:31.807Z,-7.67
2023-02-06T23:29:07.401Z,-7.69
2023-02-06T23:31:37.534Z,-7.71
2023-02-06T23:34:04.806Z,-7.72
2023-02-06T23:36:33.188Z,-7.74
2023-02-06T23:39:04.739Z,-7.75
2023-02-06T23:41:35.644Z,-7.76
2023-02-06T23:44:08.496Z,-7.78
2023-02-06T23:46:41.333Z,-7.80
2023-02-06T23:49:12.017Z,-7.83
2023-02-06T23:51:39.838Z,-7.84
2023-02-06T23:54:09.580Z,-7.86
2023-02-06T23:56:39.379Z,-7.89
2023-02-06T23:59:10.344Z,-7.92
